Time;durP1;ratioP1;P1;durP2;ratioP2;P2;SDS_P1;SDS_P2;PMS_P1;PMS_P2;Temp;Humidity;BMP_temperature;BMP_pressure;BME280_temperature;BME280_humidity;BME280_pressure;Samples;Min_cycle;Max_cycle;Signal;HPM_P1;HPM_P2
2023/08/10 00:01:53;;;;;;;0.20;0.20;;;;;;;;;;5124578;27;20082;-49
2023/08/10 00:04:19;;;;;;;0.10;0.10;;;;;;;;;;5124957;28;20047;-52
2023/08/10 00:06:45;;;;;;;0.10;0.10;;;;;;;;;;5125208;28;20040;-48
2023/08/10 00:09:11;;;;;;;0.20;0.20;;;;;;;;;;5124710;28;20055;-51
2023/08/10 00:11:37;;;;;;;0.10;0.10;;;;;;;;;;5124980;27;20487;-51
2023/08/10 00:14:03;;;;;;;0.20;0.20;;;;;;;;;;5124483;28;20092;-49
2023/08/10 00:16:29;;;;;;;0.20;0.20;;;;;;;;;;5125249;28;20047;-48
2023/08/10 00:18:55;;;;;;;0.10;0.10;;;;;;;;;;5125003;28;20051;-49
2023/08/10 00:21:20;;;;;;;0.10;0.10;;;;;;;;;;5124612;27;20434;-51
2023/08/10 00:23:46;;;;;;;0.20;0.20;;;;;;;;;;5124790;28;20205;-50
2023/08/10 00:26:11;;;;;;;0.10;0.10;;;;;;;;;;5124463;28;20057;-49
2023/08/10 00:28:37;;;;;;;0.10;0.10;;;;;;;;;;5120000;28;20047;-48
2023/08/10 00:31:03;;;;;;;0.10;0.10;;;;;;;;;;5126345;27;20047;-50
2023/08/10 00:33:28;;;;;;;0.10;0.10;;;;;;;;;;5123940;28;20062;-50
2023/08/10 00:36:03;;;;;;;0.10;0.10;;;;;;;;;;5124340;28;20081;-51
2023/08/10 00:38:28;;;;;;;0.10;0.10;;;;;;;;;;5123909;28;20104;-52
2023/08/10 00:40:54;;;;;;;0.10;0.10;;;;;;;;;;5125638;27;20051;-49
2023/08/10 00:43:21;;;;;;;0.25;0.25;;;;;;;;;;5124272;28;20055;-49
2023/08/10 00:45:47;;;;;;;0.10;0.10;;;;;;;;;;5124584;28;20043;-50
2023/08/10 00:48:13;;;;;;;0.10;0.10;;;;;;;;;;5123834;28;20061;-51
2023/08/10 00:50:38;;;;;;;0.10;0.10;;;;;;;;;;5127496;27;20057;-50
2023/08/10 00:53:04;;;;;;;0.10;0.10;;;;;;;;;;5128511;28;20065;-48
2023/08/10 00:55:29;;;;;;;0.10;0.10;;;;;;;;;;5128032;28;20047;-51
2023/08/10 00:57:55;;;;;;;0.10;0.10;;;;;;;;;;5127688;28;20058;-51
2023/08/10 01:00:20;;;;;;;0.10;0.10;;;;;;;;;;5129198;27;20452;-47
2023/08/10 01:02:46;;;;;;;0.10;0.10;;;;;;;;;;5127510;28;20073;-51
2023/08/10 01:05:12;;;;;;;0.13;0.13;;;;;;;;;;5127772;28;20501;-48
2023/08/10 01:07:44;;;;;;;0.20;0.20;;;;;;;;;;5127396;28;20122;-50
2023/08/10 01:10:14;;;;;;;0.10;0.10;;;;;;;;;;5128357;27;20197;-47
2023/08/10 01:13:00;;;;;;;0.17;0.17;;;;;;;;;;5106789;28;20446;-48
2023/08/10 01:15:33;;;;;;;0.10;0.10;;;;;;;;;;5096122;28;20495;-50
2023/08/10 01:18:00;;;;;;;0.10;0.10;;;;;;;;;;5126057;28;20483;-52
2023/08/10 01:20:26;;;;;;;0.20;0.20;;;;;;;;;;5130383;27;20253;-51
2023/08/10 01:23:01;;;;;;;0.10;0.10;;;;;;;;;;5127061;28;20471;-51
2023/08/10 01:25:27;;;;;;;0.10;0.10;;;;;;;;;;5127132;27;20076;-49
2023/08/10 01:27:52;;;;;;;0.10;0.10;;;;;;;;;;5127907;27;20408;-52
2023/08/10 01:30:18;;;;;;;0.10;0.10;;;;;;;;;;5103468;27;20538;-52
2023/08/10 01:32:44;;;;;;;0.10;0.10;;;;;;;;;;5127110;28;20382;-49
2023/08/10 01:35:10;;;;;;;0.20;0.20;;;;;;;;;;5127456;28;20122;-52
2023/08/10 01:37:36;;;;;;;0.17;0.17;;;;;;;;;;5127239;28;20495;-51
2023/08/10 01:40:04;;;;;;;0.20;0.20;;;;;;;;;;5127901;27;20047;-48
2023/08/10 01:42:30;;;;;;;0.10;0.10;;;;;;;;;;5126512;27;20173;-48
2023/08/10 01:44:55;;;;;;;0.20;0.20;;;;;;;;;;5127755;27;20054;-51
2023/08/10 01:47:41;;;;;;;0.10;0.10;;;;;;;;;;5127934;27;20047;-48
2023/08/10 01:50:07;;;;;;;0.10;0.10;;;;;;;;;;5128424;27;20059;-50
2023/08/10 01:52:36;;;;;;;0.10;0.10;;;;;;;;;;5128791;27;20081;-53
2023/08/10 01:55:02;;;;;;;;;;;;;;;;;;5127901;28;20089;-50
2023/08/10 01:57:29;;;;;;;0.10;0.10;;;;;;;;;;5127571;28;19930;-51
2023/08/10 01:59:55;;;;;;;0.20;0.20;;;;;;;;;;5127193;27;20043;-49
2023/08/10 02:02:21;;;;;;;0.15;0.15;;;;;;;;;;5129930;27;20381;-48
2023/08/10 02:04:46;;;;;;;0.20;0.20;;;;;;;;;;5125974;28;20043;-50
2023/08/10 02:07:12;;;;;;;0.10;0.10;;;;;;;;;;5127060;28;20523;-53
2023/08/10 02:09:37;;;;;;;0.10;0.10;;;;;;;;;;5126864;28;20058;-51
2023/08/10 02:12:03;;;;;;;0.20;0.20;;;;;;;;;;5130248;27;20357;-52
2023/08/10 02:14:29;;;;;;;0.30;0.30;;;;;;;;;;5126650;28;20111;-49
2023/08/10 02:16:55;;;;;;;0.20;0.20;;;;;;;;;;5127569;28;20051;-50
2023/08/10 02:19:20;;;;;;;0.10;0.10;;;;;;;;;;5126811;27;20051;-49
2023/08/10 02:21:46;;;;;;;0.13;0.13;;;;;;;;;;5131696;27;20051;-51
2023/08/10 02:24:12;;;;;;;0.20;0.20;;;;;;;;;;5126319;28;20054;-50
2023/08/10 02:26:37;;;;;;;0.10;0.10;;;;;;;;;;5126942;27;20457;-51
2023/08/10 02:29:03;;;;;;;0.10;0.10;;;;;;;;;;5126193;27;20646;-49
2023/08/10 02:31:28;;;;;;;0.10;0.10;;;;;;;;;;5131884;27;20054;-49
2023/08/10 02:33:54;;;;;;;0.20;0.20;;;;;;;;;;5126628;28;20069;-49
2023/08/10 02:36:19;;;;;;;0.10;0.10;;;;;;;;;;5126618;28;20481;-46
2023/08/10 02:38:45;;;;;;;0.20;0.20;;;;;;;;;;5126068;27;20446;-49
2023/08/10 02:41:11;;;;;;;0.10;0.10;;;;;;;;;;5128090;27;20055;-52
2023/08/10 02:43:36;;;;;;;0.10;0.10;;;;;;;;;;5125527;28;20047;-50
2023/08/10 02:46:02;;;;;;;0.10;0.10;;;;;;;;;;5126535;27;20542;-51
2023/08/10 02:48:28;;;;;;;0.10;0.10;;;;;;;;;;5127225;27;20130;-57
2023/08/10 02:50:54;;;;;;;0.20;0.20;;;;;;;;;;5131828;27;20077;-58
2023/08/10 02:53:20;;;;;;;0.20;0.20;;;;;;;;;;5126759;28;20082;-56
2023/08/10 02:55:45;;;;;;;0.20;0.20;;;;;;;;;;5127055;28;20467;-57
2023/08/10 02:58:11;;;;;;;0.20;0.20;;;;;;;;;;5126761;28;20058;-56
2023/08/10 03:00:37;;;;;;;0.20;0.20;;;;;;;;;;5126379;27;20051;-56
2023/08/10 03:03:04;;;;;;;0.10;0.10;;;;;;;;;;5124725;28;20103;-56
2023/08/10 03:05:29;;;;;;;0.20;0.20;;;;;;;;;;5126141;28;20805;-57
2023/08/10 03:07:55;;;;;;;0.20;0.20;;;;;;;;;;5125483;28;20336;-56
2023/08/10 03:10:21;;;;;;;0.10;0.10;;;;;;;;;;5129767;27;20078;-58
2023/08/10 03:12:46;;;;;;;0.10;0.10;;;;;;;;;;5127265;27;20047;-57
2023/08/10 03:15:12;;;;;;;0.10;0.10;;;;;;;;;;5125396;27;20039;-56
2023/08/10 03:17:39;;;;;;;0.10;0.10;;;;;;;;;;5126890;27;20522;-57
2023/08/10 03:20:12;;;;;;;0.20;0.20;;;;;;;;;;5127273;27;20058;-58
2023/08/10 03:22:38;;;;;;;0.10;0.10;;;;;;;;;;5129598;27;20051;-57
2023/08/10 03:25:04;;;;;;;0.10;0.10;;;;;;;;;;5125806;28;20081;-58
2023/08/10 03:27:34;;;;;;;0.20;0.20;;;;;;;;;;5125899;27;20039;-58
2023/08/10 03:29:59;;;;;;;0.20;0.20;;;;;;;;;;5126705;27;20412;-56
2023/08/10 03:32:25;;;;;;;0.10;0.10;;;;;;;;;;5131149;27;20149;-56
2023/08/10 03:34:52;;;;;;;0.10;0.10;;;;;;;;;;5126100;28;20419;-56
2023/08/10 03:37:17;;;;;;;0.10;0.10;;;;;;;;;;5126388;28;20050;-57
2023/08/10 03:39:43;;;;;;;0.10;0.10;;;;;;;;;;5125252;28;20070;-57
2023/08/10 03:42:09;;;;;;;0.20;0.20;;;;;;;;;;5129313;27;20454;-57
2023/08/10 03:44:34;;;;;;;0.10;0.10;;;;;;;;;;5123666;28;20349;-57
2023/08/10 03:47:00;;;;;;;0.10;0.10;;;;;;;;;;5125449;27;20058;-57
2023/08/10 03:49:25;;;;;;;0.10;0.10;;;;;;;;;;5125834;27;20074;-56
2023/08/10 03:51:51;;;;;;;0.10;0.10;;;;;;;;;;5133190;27;20044;-57
2023/08/10 03:54:17;;;;;;;0.20;0.20;;;;;;;;;;5125605;28;20054;-57
2023/08/10 03:56:43;;;;;;;0.20;0.20;;;;;;;;;;5125981;28;20047;-57
2023/08/10 03:59:08;;;;;;;0.10;0.10;;;;;;;;;;5125770;28;20155;-56
2023/08/10 04:01:34;;;;;;;0.10;0.10;;;;;;;;;;5133170;27;20059;-56
2023/08/10 04:04:00;;;;;;;0.15;0.15;;;;;;;;;;5124673;28;20046;-56
2023/08/10 04:06:26;;;;;;;0.20;0.20;;;;;;;;;;5125770;27;20062;-55
2023/08/10 04:08:53;;;;;;;0.20;0.20;;;;;;;;;;5125415;28;20051;-57
2023/08/10 04:11:19;;;;;;;0.13;0.13;;;;;;;;;;5133444;27;20112;-57
2023/08/10 04:13:46;;;;;;;0.20;0.20;;;;;;;;;;5125038;28;20055;-58
2023/08/10 04:16:11;;;;;;;0.20;0.20;;;;;;;;;;5124765;28;20104;-57
2023/08/10 04:18:37;;;;;;;0.20;0.20;;;;;;;;;;5125131;27;20431;-57
2023/08/10 04:21:03;;;;;;;0.10;0.10;;;;;;;;;;5128546;27;20308;-56
2023/08/10 04:23:29;;;;;;;0.10;0.10;;;;;;;;;;5125230;28;20043;-58
2023/08/10 04:25:54;;;;;;;0.10;0.10;;;;;;;;;;5126848;27;20051;-57
2023/08/10 04:28:20;;;;;;;0.20;0.20;;;;;;;;;;5127867;27;20294;-57
2023/08/10 04:30:45;;;;;;;0.20;0.20;;;;;;;;;;5129407;27;20543;-56
2023/08/10 04:33:11;;;;;;;0.20;0.20;;;;;;;;;;5128386;28;20108;-56
2023/08/10 04:35:36;;;;;;;0.10;0.10;;;;;;;;;;5129087;27;20047;-57
2023/08/10 04:38:03;;;;;;;0.13;0.13;;;;;;;;;;5129027;27;20050;-57
2023/08/10 04:40:29;;;;;;;0.20;0.20;;;;;;;;;;5128638;27;20517;-57
2023/08/10 04:42:54;;;;;;;0.20;0.20;;;;;;;;;;5127585;28;20122;-57
2023/08/10 04:45:20;;;;;;;0.10;0.10;;;;;;;;;;5126985;27;20058;-56
2023/08/10 04:47:46;;;;;;;0.20;0.20;;;;;;;;;;5127291;28;20050;-56
2023/08/10 04:50:12;;;;;;;0.10;0.10;;;;;;;;;;5132116;27;20633;-57
2023/08/10 04:52:37;;;;;;;0.20;0.20;;;;;;;;;;5125975;28;20142;-56
2023/08/10 04:55:04;;;;;;;0.20;0.20;;;;;;;;;;5126979;28;20075;-58
2023/08/10 04:57:31;;;;;;;0.20;0.20;;;;;;;;;;5127014;28;20050;-57
2023/08/10 04:59:56;;;;;;;0.20;0.20;;;;;;;;;;5128681;27;20039;-56
2023/08/10 05:02:22;;;;;;;0.13;0.13;;;;;;;;;;5128363;27;20491;-57
2023/08/10 05:04:51;;;;;;;0.10;0.10;;;;;;;;;;5127216;28;20107;-56
2023/08/10 05:07:17;;;;;;;0.20;0.20;;;;;;;;;;5122764;28;20047;-56
2023/08/10 05:09:43;;;;;;;0.20;0.20;;;;;;;;;;5127155;28;20399;-58
2023/08/10 05:12:21;;;;;;;0.20;0.20;;;;;;;;;;5126384;28;20322;-56
2023/08/10 05:14:47;;;;;;;0.10;0.10;;;;;;;;;;5127169;28;20043;-56
2023/08/10 05:17:12;;;;;;;0.20;0.20;;;;;;;;;;5126582;28;20078;-57
2023/08/10 05:19:38;;;;;;;0.20;0.20;;;;;;;;;;5123024;28;20058;-57
2023/08/10 05:22:04;;;;;;;0.10;0.10;;;;;;;;;;5126114;27;20043;-57
2023/08/10 05:24:32;;;;;;;0.10;0.10;;;;;;;;;;5125078;28;20505;-57
2023/08/10 05:26:57;;;;;;;0.20;0.20;;;;;;;;;;5118294;28;20075;-57
2023/08/10 05:29:23;;;;;;;0.10;0.10;;;;;;;;;;5133129;27;20344;-57
2023/08/10 05:31:49;;;;;;;0.20;0.20;;;;;;;;;;5128761;27;20043;-48
2023/08/10 05:34:14;;;;;;;0.10;0.10;;;;;;;;;;5122233;27;20035;-49
2023/08/10 05:36:40;;;;;;;0.20;0.20;;;;;;;;;;5124296;27;20039;-52
2023/08/10 05:39:05;;;;;;;0.20;0.20;;;;;;;;;;5127314;28;20051;-53
2023/08/10 05:41:31;;;;;;;0.10;0.10;;;;;;;;;;5124767;27;20047;-51
2023/08/10 05:43:56;;;;;;;0.10;0.10;;;;;;;;;;5125512;27;20423;-50
2023/08/10 05:46:22;;;;;;;0.10;0.10;;;;;;;;;;5123243;28;20507;-47
2023/08/10 05:48:49;;;;;;;0.20;0.20;;;;;;;;;;5118512;27;20043;-49
2023/08/10 05:51:14;;;;;;;0.10;0.10;;;;;;;;;;5118783;27;20054;-48
2023/08/10 05:53:41;;;;;;;0.10;0.10;;;;;;;;;;5120520;28;20110;-52
2023/08/10 05:56:06;;;;;;;0.20;0.20;;;;;;;;;;5117766;27;20047;-51
2023/08/10 05:58:32;;;;;;;0.10;0.10;;;;;;;;;;5112239;28;20050;-52
2023/08/10 06:00:57;;;;;;;0.20;0.20;;;;;;;;;;5105434;27;20055;-49
2023/08/10 06:03:23;;;;;;;0.20;0.20;;;;;;;;;;5100193;28;20035;-50
2023/08/10 06:05:49;;;;;;;0.10;0.10;;;;;;;;;;5108591;28;20609;-50
2023/08/10 06:08:15;;;;;;;0.20;0.20;;;;;;;;;;5107038;27;20047;-47
2023/08/10 06:10:40;;;;;;;0.10;0.10;;;;;;;;;;5117641;27;20191;-51
2023/08/10 06:13:06;;;;;;;0.10;0.10;;;;;;;;;;5112601;27;20095;-52
2023/08/10 06:15:32;;;;;;;0.10;0.10;;;;;;;;;;5108276;27;20085;-48
2023/08/10 06:17:58;;;;;;;0.10;0.10;;;;;;;;;;5114201;27;20050;-51
2023/08/10 06:20:26;;;;;;;0.10;0.10;;;;;;;;;;5117708;27;20925;-47
2023/08/10 06:22:53;;;;;;;0.10;0.10;;;;;;;;;;5116127;27;20047;-49
2023/08/10 06:25:19;;;;;;;0.20;0.20;;;;;;;;;;5123684;27;20051;-52
2023/08/10 06:27:47;;;;;;;0.10;0.10;;;;;;;;;;5119136;27;20704;-51
2023/08/10 06:30:16;;;;;;;0.10;0.10;;;;;;;;;;5116446;27;20066;-48
2023/08/10 06:32:42;;;;;;;0.10;0.10;;;;;;;;;;5122039;27;20047;-52
2023/08/10 06:35:08;;;;;;;0.15;0.15;;;;;;;;;;5117371;27;20499;-57
2023/08/10 06:37:34;;;;;;;0.10;0.10;;;;;;;;;;5114396;27;20051;-47
2023/08/10 06:40:00;;;;;;;0.20;0.20;;;;;;;;;;5113065;27;20076;-52
2023/08/10 06:42:25;;;;;;;0.20;0.20;;;;;;;;;;5112957;28;20073;-52
2023/08/10 06:44:51;;;;;;;0.20;0.20;;;;;;;;;;5113903;27;20128;-51
2023/08/10 06:47:16;;;;;;;0.22;0.22;;;;;;;;;;5118714;28;20039;-52
2023/08/10 06:49:42;;;;;;;0.20;0.20;;;;;;;;;;5112232;27;20043;-53
2023/08/10 06:52:08;;;;;;;0.20;0.20;;;;;;;;;;5110578;27;20054;-54
2023/08/10 06:54:34;;;;;;;0.10;0.10;;;;;;;;;;5109381;27;20063;-52
2023/08/10 06:57:00;;;;;;;0.38;0.38;;;;;;;;;;5100440;27;20069;-52
2023/08/10 06:59:26;;;;;;;0.15;0.15;;;;;;;;;;5103881;27;20054;-50
2023/08/10 07:01:52;;;;;;;0.10;0.10;;;;;;;;;;5092577;27;20043;-52
2023/08/10 07:04:18;;;;;;;0.10;0.10;;;;;;;;;;5085005;27;20045;-49
2023/08/10 07:06:43;;;;;;;0.20;0.20;;;;;;;;;;5085291;27;20447;-50
2023/08/10 07:09:09;;;;;;;0.20;0.20;;;;;;;;;;5091945;27;20560;-50
2023/08/10 07:11:35;;;;;;;0.20;0.20;;;;;;;;;;5095402;27;20424;-50
2023/08/10 07:14:01;;;;;;;0.20;0.20;;;;;;;;;;5105281;28;20699;-50
2023/08/10 07:16:26;;;;;;;0.10;0.10;;;;;;;;;;5108812;27;20047;-52
2023/08/10 07:18:52;;;;;;;0.20;0.20;;;;;;;;;;5108775;27;20031;-53
2023/08/10 07:21:18;;;;;;;0.20;0.20;;;;;;;;;;5110541;27;20294;-51
2023/08/10 07:23:43;;;;;;;0.20;0.20;;;;;;;;;;5114868;27;20043;-51
2023/08/10 07:26:10;;;;;;;0.10;0.10;;;;;;;;;;5119771;27;20700;-48
2023/08/10 07:28:36;;;;;;;0.10;0.10;;;;;;;;;;5116709;27;20067;-48
2023/08/10 07:31:02;;;;;;;0.10;0.10;;;;;;;;;;5111694;27;20050;-51
2023/08/10 07:33:27;;;;;;;0.10;0.10;;;;;;;;;;5115203;27;20418;-50
2023/08/10 07:35:54;;;;;;;0.20;0.20;;;;;;;;;;5122700;27;20078;-51
2023/08/10 07:38:19;;;;;;;0.10;0.10;;;;;;;;;;5110325;28;20286;-50
2023/08/10 07:40:45;;;;;;;0.15;0.15;;;;;;;;;;5121934;27;20050;-47
2023/08/10 07:43:10;;;;;;;0.10;0.10;;;;;;;;;;5114212;27;20061;-49
2023/08/10 07:45:36;;;;;;;0.20;0.20;;;;;;;;;;5110763;28;20104;-49
2023/08/10 07:48:02;;;;;;;0.20;0.20;;;;;;;;;;5111159;28;20286;-49
2023/08/10 07:50:28;;;;;;;0.13;0.13;;;;;;;;;;5112496;27;20411;-51
2023/08/10 07:52:54;;;;;;;0.10;0.10;;;;;;;;;;5116296;28;20039;-49
2023/08/10 07:55:19;;;;;;;0.20;0.20;;;;;;;;;;5109745;28;20462;-52
2023/08/10 07:57:45;;;;;;;0.20;0.20;;;;;;;;;;5112919;28;20320;-50
2023/08/10 08:00:11;;;;;;;0.10;0.10;;;;;;;;;;5099753;27;20070;-50
2023/08/10 08:02:36;;;;;;;0.20;0.20;;;;;;;;;;5122288;27;20396;-47
2023/08/10 08:05:03;;;;;;;0.10;0.10;;;;;;;;;;5106035;27;20055;-48
2023/08/10 08:07:30;;;;;;;0.20;0.20;;;;;;;;;;5110371;27;20049;-52
2023/08/10 08:09:57;;;;;;;0.20;0.20;;;;;;;;;;5101288;27;20082;-51
2023/08/10 08:12:22;;;;;;;0.20;0.20;;;;;;;;;;5101635;27;20047;-49
2023/08/10 08:14:48;;;;;;;0.20;0.20;;;;;;;;;;5108019;27;20044;-52
2023/08/10 08:17:14;;;;;;;0.15;0.15;;;;;;;;;;5114043;28;20047;-50
2023/08/10 08:19:40;;;;;;;0.10;0.10;;;;;;;;;;5108575;27;20047;-50
2023/08/10 08:22:05;;;;;;;0.20;0.20;;;;;;;;;;5112291;27;20051;-52
2023/08/10 08:24:31;;;;;;;0.10;0.10;;;;;;;;;;5108841;27;20146;-48
2023/08/10 08:26:57;;;;;;;0.20;0.20;;;;;;;;;;5114949;27;20047;-49
2023/08/10 08:29:23;;;;;;;0.10;0.10;;;;;;;;;;5109939;28;20039;-52
2023/08/10 08:31:48;;;;;;;0.20;0.20;;;;;;;;;;5106021;27;20096;-48
2023/08/10 08:34:15;;;;;;;0.20;0.20;;;;;;;;;;5107053;27;20118;-47
2023/08/10 08:36:40;;;;;;;0.10;0.10;;;;;;;;;;5098285;27;20081;-50
2023/08/10 08:39:06;;;;;;;0.10;0.10;;;;;;;;;;5102104;27;20047;-52
2023/08/10 08:41:34;;;;;;;0.20;0.20;;;;;;;;;;5107636;27;20525;-47
2023/08/10 08:44:00;;;;;;;0.20;0.20;;;;;;;;;;5109807;27;20052;-47
2023/08/10 08:46:29;;;;;;;0.10;0.10;;;;;;;;;;5115840;27;20051;-48
2023/08/10 08:48:54;;;;;;;;;;;;;;;;;;5107745;27;20055;-48
2023/08/10 08:51:20;;;;;;;0.10;0.10;;;;;;;;;;5117699;27;19993;-48
2023/08/10 08:53:46;;;;;;;0.52;0.30;;;;;;;;;;5120965;27;20055;-58
2023/08/10 08:56:11;;;;;;;0.20;0.20;;;;;;;;;;5128412;27;20172;-58
2023/08/10 08:58:37;;;;;;;0.20;0.20;;;;;;;;;;5118068;27;20051;-47
2023/08/10 09:01:03;;;;;;;0.20;0.20;;;;;;;;;;5114319;27;20199;-46
2023/08/10 09:03:29;;;;;;;0.20;0.20;;;;;;;;;;5119964;27;20050;-51
2023/08/10 09:05:55;;;;;;;0.10;0.10;;;;;;;;;;5119462;27;20043;-48
2023/08/10 09:08:21;;;;;;;0.10;0.10;;;;;;;;;;5111894;27;20049;-47
2023/08/10 09:10:47;;;;;;;0.20;0.20;;;;;;;;;;5110018;27;20051;-50
2023/08/10 09:13:14;;;;;;;0.10;0.10;;;;;;;;;;5114933;27;20051;-50
2023/08/10 09:15:39;;;;;;;0.20;0.20;;;;;;;;;;5108778;27;20047;-49
2023/08/10 09:18:06;;;;;;;0.20;0.20;;;;;;;;;;5108544;27;20059;-50
2023/08/10 09:20:31;;;;;;;0.20;0.20;;;;;;;;;;5109951;27;20563;-48
2023/08/10 09:22:59;;;;;;;0.10;0.10;;;;;;;;;;5113264;28;20054;-51
2023/08/10 09:25:25;;;;;;;0.20;0.20;;;;;;;;;;5113006;27;20051;-48
2023/08/10 09:27:51;;;;;;;0.10;0.10;;;;;;;;;;5113818;27;20395;-46
2023/08/10 09:30:18;;;;;;;0.10;0.10;;;;;;;;;;5105108;27;20053;-49
2023/08/10 09:32:44;;;;;;;0.20;0.20;;;;;;;;;;5101835;27;20058;-50
2023/08/10 09:35:15;;;;;;;0.10;0.10;;;;;;;;;;5103079;27;20130;-48
2023/08/10 09:37:41;;;;;;;0.20;0.20;;;;;;;;;;5102223;27;20046;-50
2023/08/10 09:40:07;;;;;;;0.20;0.20;;;;;;;;;;5104240;27;20288;-57
2023/08/10 09:42:34;;;;;;;0.20;0.20;;;;;;;;;;5097135;28;20464;-57
2023/08/10 09:45:04;;;;;;;0.20;0.20;;;;;;;;;;5108798;27;20043;-57
2023/08/10 09:47:33;;;;;;;0.20;0.20;;;;;;;;;;5111396;27;20483;-57
2023/08/10 09:50:02;;;;;;;0.20;0.20;;;;;;;;;;5101620;27;20051;-56
2023/08/10 09:52:28;;;;;;;0.20;0.20;;;;;;;;;;5111539;27;20404;-57
2023/08/10 09:54:54;;;;;;;0.10;0.10;;;;;;;;;;5118673;27;20497;-56
2023/08/10 09:57:20;;;;;;;0.20;0.20;;;;;;;;;;5116032;27;20055;-57
2023/08/10 09:59:46;;;;;;;0.20;0.20;;;;;;;;;;5116450;27;20154;-57
2023/08/10 10:02:13;;;;;;;0.20;0.20;;;;;;;;;;5113138;27;20040;-57
2023/08/10 10:04:39;;;;;;;0.20;0.20;;;;;;;;;;5118701;28;20043;-57
2023/08/10 10:07:06;;;;;;;0.20;0.20;;;;;;;;;;5117694;27;20051;-57
2023/08/10 10:09:33;;;;;;;0.20;0.20;;;;;;;;;;5111989;27;20194;-56
2023/08/10 10:11:59;;;;;;;0.10;0.10;;;;;;;;;;5115974;27;20088;-57
2023/08/10 10:14:26;;;;;;;0.17;0.17;;;;;;;;;;5111012;27;20512;-56
2023/08/10 10:16:52;;;;;;;0.20;0.20;;;;;;;;;;5117697;27;20555;-57
2023/08/10 10:19:18;;;;;;;0.20;0.20;;;;;;;;;;5113544;28;20051;-57
2023/08/10 10:21:44;;;;;;;0.20;0.20;;;;;;;;;;5120443;27;20609;-57
2023/08/10 10:24:12;;;;;;;0.10;0.10;;;;;;;;;;5114068;27;20050;-57
2023/08/10 10:26:38;;;;;;;0.10;0.10;;;;;;;;;;5115383;27;20047;-57
2023/08/10 10:29:19;;;;;;;0.10;0.10;;;;;;;;;;5109914;27;20094;-56
2023/08/10 10:31:44;;;;;;;0.20;0.20;;;;;;;;;;5113328;27;20249;-57
2023/08/10 10:34:10;;;;;;;0.17;0.17;;;;;;;;;;5105047;27;20500;-57
2023/08/10 10:36:38;;;;;;;0.10;0.10;;;;;;;;;;5112968;28;20186;-57
2023/08/10 10:39:07;;;;;;;0.20;0.20;;;;;;;;;;5109482;27;20036;-57
2023/08/10 10:41:34;;;;;;;0.15;0.15;;;;;;;;;;5103560;27;20312;-57
2023/08/10 10:44:02;;;;;;;0.10;0.10;;;;;;;;;;5114518;27;20122;-55
2023/08/10 10:46:36;;;;;;;0.10;0.10;;;;;;;;;;5109743;28;20077;-57
2023/08/10 10:49:06;;;;;;;0.20;0.20;;;;;;;;;;5108077;27;20338;-57
2023/08/10 10:51:32;;;;;;;0.10;0.10;;;;;;;;;;5111032;27;20043;-57
2023/08/10 10:53:58;;;;;;;0.20;0.20;;;;;;;;;;5116324;28;20505;-57
2023/08/10 10:56:25;;;;;;;0.20;0.20;;;;;;;;;;5106215;27;20243;-56
2023/08/10 10:58:51;;;;;;;0.10;0.10;;;;;;;;;;5113571;27;20047;-56
2023/08/10 11:01:19;;;;;;;0.20;0.20;;;;;;;;;;5111092;27;20431;-57
2023/08/10 11:03:44;;;;;;;;;;;;;;;;;;5111173;27;20078;-57
2023/08/10 11:06:12;;;;;;;0.15;0.15;;;;;;;;;;5118087;27;19923;-57
2023/08/10 11:08:37;;;;;;;0.20;0.20;;;;;;;;;;5112141;27;20063;-56
2023/08/10 11:11:03;;;;;;;0.20;0.20;;;;;;;;;;5115276;27;20071;-57
2023/08/10 11:13:29;;;;;;;0.10;0.10;;;;;;;;;;5112803;27;20624;-55
2023/08/10 11:15:54;;;;;;;0.20;0.20;;;;;;;;;;5112540;27;20047;-56
2023/08/10 11:18:20;;;;;;;0.17;0.17;;;;;;;;;;5114040;27;20278;-59
2023/08/10 11:20:47;;;;;;;0.20;0.20;;;;;;;;;;5115847;27;20046;-52
2023/08/10 11:23:13;;;;;;;0.10;0.10;;;;;;;;;;5110781;27;20035;-57
2023/08/10 11:25:49;;;;;;;0.20;0.20;;;;;;;;;;5113245;27;20047;-55
2023/08/10 11:28:16;;;;;;;0.20;0.20;;;;;;;;;;5102254;27;20054;-57
2023/08/10 11:30:43;;;;;;;0.10;0.10;;;;;;;;;;5107746;27;20047;-57
2023/08/10 11:33:10;;;;;;;0.10;0.10;;;;;;;;;;5103557;27;20142;-57
2023/08/10 11:35:41;;;;;;;0.20;0.20;;;;;;;;;;5104536;27;20130;-56
2023/08/10 11:38:07;;;;;;;0.20;0.20;;;;;;;;;;5110992;27;20047;-63
2023/08/10 11:40:33;;;;;;;0.20;0.20;;;;;;;;;;5112853;27;20053;-56
2023/08/10 11:43:02;;;;;;;0.20;0.20;;;;;;;;;;5118009;27;20391;-57
2023/08/10 11:45:29;;;;;;;0.20;0.20;;;;;;;;;;5093267;28;20143;-57
2023/08/10 11:47:57;;;;;;;0.10;0.10;;;;;;;;;;5085613;28;20319;-57
2023/08/10 11:50:30;;;;;;;0.20;0.20;;;;;;;;;;5099195;28;20518;-55
2023/08/10 11:52:55;;;;;;;0.10;0.10;;;;;;;;;;5102923;28;20134;-57
2023/08/10 11:55:21;;;;;;;0.20;0.20;;;;;;;;;;5101544;28;20457;-57
2023/08/10 11:57:48;;;;;;;0.10;0.10;;;;;;;;;;5090051;28;20048;-57
2023/08/10 12:00:17;;;;;;;0.20;0.20;;;;;;;;;;5088048;28;20122;-57
2023/08/10 12:03:02;;;;;;;0.10;0.10;;;;;;;;;;5104754;28;20087;-57
2023/08/10 12:05:34;;;;;;;0.13;0.13;;;;;;;;;;5078682;28;20048;-57
2023/08/10 12:08:01;;;;;;;0.10;0.10;;;;;;;;;;5097884;28;20102;-55
2023/08/10 12:10:32;;;;;;;0.17;0.17;;;;;;;;;;5090896;28;20352;-57
2023/08/10 12:12:58;;;;;;;0.20;0.20;;;;;;;;;;5092156;28;20298;-57
2023/08/10 12:15:23;;;;;;;0.20;0.20;;;;;;;;;;5099393;28;20139;-56
2023/08/10 12:17:49;;;;;;;0.20;0.20;;;;;;;;;;5099111;28;20035;-55
2023/08/10 12:20:15;;;;;;;0.10;0.10;;;;;;;;;;5096899;28;20098;-57
2023/08/10 12:22:47;;;;;;;0.20;0.20;;;;;;;;;;5093224;28;20531;-56
2023/08/10 12:25:13;;;;;;;0.10;0.10;;;;;;;;;;5094076;28;20104;-57
2023/08/10 12:27:38;;;;;;;0.10;0.10;;;;;;;;;;5083414;28;20446;-57
2023/08/10 12:30:04;;;;;;;0.10;0.10;;;;;;;;;;5088413;28;20420;-56
2023/08/10 12:32:30;;;;;;;0.10;0.10;;;;;;;;;;5089098;28;20040;-56
2023/08/10 12:34:56;;;;;;;0.15;0.15;;;;;;;;;;5081790;28;20143;-55
2023/08/10 12:37:24;;;;;;;0.20;0.20;;;;;;;;;;5081522;28;20112;-57
2023/08/10 12:39:50;;;;;;;0.17;0.17;;;;;;;;;;5081213;28;20047;-57
2023/08/10 12:42:15;;;;;;;0.10;0.10;;;;;;;;;;5082496;27;21958;-57
2023/08/10 12:44:41;;;;;;;0.20;0.20;;;;;;;;;;5093101;28;20040;-58
2023/08/10 12:47:07;;;;;;;0.10;0.10;;;;;;;;;;5095203;28;20496;-57
2023/08/10 12:49:33;;;;;;;0.10;0.10;;;;;;;;;;5087349;28;20407;-56
2023/08/10 12:51:58;;;;;;;0.10;0.10;;;;;;;;;;5095131;28;20245;-58
2023/08/10 12:54:24;;;;;;;0.13;0.13;;;;;;;;;;5100524;28;20473;-58
2023/08/10 12:56:51;;;;;;;0.10;0.10;;;;;;;;;;5089669;28;20062;-57
2023/08/10 12:59:17;;;;;;;0.10;0.10;;;;;;;;;;5092488;28;20350;-57
2023/08/10 13:01:42;;;;;;;0.10;0.10;;;;;;;;;;5101666;28;20083;-56
2023/08/10 13:04:08;;;;;;;0.20;0.20;;;;;;;;;;5099513;28;20139;-56
2023/08/10 13:06:34;;;;;;;0.10;0.10;;;;;;;;;;5108847;28;20044;-56
2023/08/10 13:08:59;;;;;;;0.10;0.10;;;;;;;;;;5102435;28;20598;-57
2023/08/10 13:11:25;;;;;;;0.10;0.10;;;;;;;;;;5097589;28;20071;-57
2023/08/10 13:13:50;;;;;;;0.10;0.10;;;;;;;;;;5104164;28;20055;-56
2023/08/10 13:16:16;;;;;;;0.20;0.20;;;;;;;;;;5101631;28;20051;-57
2023/08/10 13:18:41;;;;;;;0.10;0.10;;;;;;;;;;5103195;28;20044;-55
2023/08/10 13:21:07;;;;;;;0.10;0.10;;;;;;;;;;5101960;28;20096;-56
2023/08/10 13:23:33;;;;;;;0.10;0.10;;;;;;;;;;5100476;28;20048;-56
2023/08/10 13:25:58;;;;;;;0.10;0.10;;;;;;;;;;5095195;28;20044;-56
2023/08/10 13:28:24;;;;;;;0.10;0.10;;;;;;;;;;5096508;28;20054;-57
2023/08/10 13:30:49;;;;;;;0.10;0.10;;;;;;;;;;5094559;28;20553;-56
2023/08/10 13:33:16;;;;;;;0.20;0.20;;;;;;;;;;5092885;28;20046;-56
2023/08/10 13:35:41;;;;;;;0.13;0.13;;;;;;;;;;5089167;28;20393;-56
2023/08/10 13:38:07;;;;;;;0.20;0.20;;;;;;;;;;5092701;28;20059;-56
2023/08/10 13:40:33;;;;;;;0.10;0.10;;;;;;;;;;5090694;28;20043;-56
2023/08/10 13:42:58;;;;;;;0.20;0.20;;;;;;;;;;5100868;28;20515;-56
2023/08/10 13:45:24;;;;;;;0.10;0.10;;;;;;;;;;5098945;28;20420;-56
2023/08/10 13:47:49;;;;;;;0.10;0.10;;;;;;;;;;5096012;28;20649;-56
2023/08/10 13:50:15;;;;;;;0.10;0.10;;;;;;;;;;5096236;28;20201;-56
2023/08/10 13:52:41;;;;;;;0.20;0.20;;;;;;;;;;5099563;28;20055;-56
2023/08/10 13:55:06;;;;;;;0.10;0.10;;;;;;;;;;5101422;28;20243;-57
2023/08/10 13:57:32;;;;;;;0.10;0.10;;;;;;;;;;5105694;28;20144;-56
2023/08/10 13:59:58;;;;;;;0.10;0.10;;;;;;;;;;5103718;28;20093;-56
2023/08/10 14:02:24;;;;;;;0.10;0.10;;;;;;;;;;5102265;28;20504;-55
2023/08/10 14:04:50;;;;;;;0.10;0.10;;;;;;;;;;5107665;28;20476;-55
2023/08/10 14:07:15;;;;;;;0.10;0.10;;;;;;;;;;5118510;28;20043;-56
2023/08/10 14:09:41;;;;;;;0.10;0.10;;;;;;;;;;5105025;28;20150;-56
2023/08/10 14:12:07;;;;;;;0.20;0.20;;;;;;;;;;5104873;28;20051;-55
2023/08/10 14:14:33;;;;;;;0.10;0.10;;;;;;;;;;5105791;28;20580;-55
2023/08/10 14:16:59;;;;;;;0.20;0.20;;;;;;;;;;5105314;28;20058;-56
2023/08/10 14:19:25;;;;;;;0.20;0.20;;;;;;;;;;5103122;28;20134;-56
2023/08/10 14:21:50;;;;;;;0.10;0.10;;;;;;;;;;5104894;28;20054;-55
2023/08/10 14:24:16;;;;;;;0.10;0.10;;;;;;;;;;5105197;28;20050;-56
2023/08/10 14:26:42;;;;;;;0.20;0.20;;;;;;;;;;5105971;28;20077;-55
2023/08/10 14:29:08;;;;;;;0.10;0.10;;;;;;;;;;5105294;28;20450;-55
2023/08/10 14:31:33;;;;;;;0.10;0.10;;;;;;;;;;5105817;28;20431;-56
2023/08/10 14:33:59;;;;;;;0.20;0.20;;;;;;;;;;5103425;28;20047;-55
2023/08/10 14:36:24;;;;;;;0.20;0.20;;;;;;;;;;5106454;28;20059;-53
2023/08/10 14:38:50;;;;;;;0.10;0.10;;;;;;;;;;5104210;28;20044;-54